Time;durP1;ratioP1;P1;durP2;ratioP2;P2;SDS_P1;SDS_P2;PMS_P1;PMS_P2;Temp;Humidity;BMP_temperature;BMP_pressure;BME280_temperature;BME280_humidity;BME280_pressure;Samples;Min_cycle;Max_cycle;Signal;HPM_P1;HPM_P2
2023/02/28 00:00:10;;;;;;;5.85;3.10;;;;;;;4.36;90.13;98810.56;5093872;28;20040;-92
2023/02/28 00:02:37;;;;;;;5.35;3.03;;;;;;;4.35;90.58;98798.28;5095033;28;20036;-92
2023/02/28 00:05:03;;;;;;;5.60;3.50;;;;;;;4.23;90.34;98779.00;5094293;28;20044;-90
2023/02/28 00:07:30;;;;;;;4.75;3.03;;;;;;;4.28;90.17;98797.41;5091829;28;20040;-93
2023/02/28 00:09:56;;;;;;;6.63;3.30;;;;;;;4.37;89.56;98809.69;5094668;28;20060;-90
2023/02/28 00:12:22;;;;;;;6.15;3.40;;;;;;;4.23;90.13;98793.91;5089868;28;20056;-93
2023/02/28 00:14:48;;;;;;;5.20;3.20;;;;;;;4.35;90.05;98793.03;5092207;28;20045;-92
2023/02/28 00:17:14;;;;;;;6.30;3.25;;;;;;;4.29;89.58;98792.16;5091889;28;20044;-90
2023/02/28 00:19:40;;;;;;;5.65;3.10;;;;;;;4.23;90.08;98793.91;5098289;28;20044;-91
2023/02/28 00:22:06;;;;;;;6.35;3.50;;;;;;;4.16;90.20;98798.28;5098903;28;20047;-90
2023/02/28 00:24:33;;;;;;;6.07;3.53;;;;;;;4.19;90.32;98795.69;5095632;28;20048;-91
2023/02/28 00:26:59;;;;;;;6.32;3.75;;;;;;;4.19;90.18;98787.78;5091414;28;20091;-90
2023/02/28 00:29:25;;;;;;;8.52;3.45;;;;;;;4.30;90.08;98803.56;5093698;28;20518;-92
2023/02/28 00:31:51;;;;;;;8.18;3.90;;;;;;;4.20;90.29;98796.53;5093807;28;20067;-93
2023/02/28 00:34:16;;;;;;;7.90;3.47;;;;;;;4.15;90.23;98791.28;5096075;28;20490;-92
2023/02/28 00:36:45;;;;;;;6.00;3.47;;;;;;;4.22;90.45;98815.84;5094982;28;20032;-90
2023/02/28 00:39:11;;;;;;;5.80;3.40;;;;;;;4.23;89.99;98813.22;5093180;28;20060;-93
2023/02/28 00:41:38;;;;;;;6.03;3.63;;;;;;;4.21;90.55;98808.84;5094329;28;20120;-91
2023/02/28 00:44:05;;;;;;;5.85;3.75;;;;;;;4.18;90.69;98807.06;5091203;28;22367;-91
2023/02/28 00:46:31;;;;;;;5.85;3.60;;;;;;;4.14;90.50;98799.19;5090310;28;20127;-90
2023/02/28 00:48:57;;;;;;;6.53;3.42;;;;;;;4.10;90.35;98793.94;5098233;28;20126;-92
2023/02/28 00:51:23;;;;;;;7.18;3.58;;;;;;;4.07;90.72;98788.66;5091053;28;20454;-93
2023/02/28 00:53:48;;;;;;;6.07;3.35;;;;;;;4.18;91.09;98812.34;5091747;28;20457;-92
2023/02/28 00:56:14;;;;;;;7.03;3.60;;;;;;;4.17;91.09;98815.00;5099999;28;20051;-90
2023/02/28 00:58:42;;;;;;;6.00;3.78;;;;;;;4.08;91.16;98794.81;5089623;28;20039;-90
2023/02/28 01:01:07;;;;;;;6.53;3.22;;;;;;;4.02;90.31;98777.28;5084901;28;20043;-93
2023/02/28 01:03:33;;;;;;;5.72;3.97;;;;;;;4.09;90.43;98784.25;5078890;28;20028;-93
2023/02/28 01:05:59;;;;;;;6.85;3.33;;;;;;;4.12;91.18;98801.84;5076703;28;20040;-90
2023/02/28 01:08:25;;;;;;;5.15;3.28;;;;;;;4.10;90.98;98791.31;5085227;28;20576;-92
2023/02/28 01:10:51;;;;;;;6.88;3.80;;;;;;;4.09;91.25;98804.44;5079734;28;20055;-92
2023/02/28 01:13:18;;;;;;;5.50;3.38;;;;;;;4.04;90.98;98787.81;5078608;28;20040;-92
2023/02/28 01:15:49;;;;;;;8.45;3.78;;;;;;;4.16;90.52;98807.94;5076329;28;20109;-92
2023/02/28 01:18:15;;;;;;;6.00;3.65;;;;;;;4.06;91.20;98786.03;5082484;28;20049;-92
2023/02/28 01:20:41;;;;;;;6.10;3.67;;;;;;;4.13;90.95;98805.34;5079540;28;20090;-92
2023/02/28 01:23:07;;;;;;;6.82;3.70;;;;;;;4.11;91.35;98805.31;5076247;28;20429;-92
2023/02/28 01:25:34;;;;;;;7.05;4.35;;;;;;;3.96;91.45;98779.91;5077821;28;20047;-92
2023/02/28 01:28:00;;;;;;;6.07;3.88;;;;;;;4.11;90.94;98790.41;5082765;28;20036;-90
2023/02/28 01:30:26;;;;;;;6.80;3.92;;;;;;;4.08;91.05;98795.69;5076933;28;20047;-91
2023/02/28 01:32:53;;;;;;;6.15;3.53;;;;;;;4.02;91.17;98772.00;5081650;28;20043;-90
2023/02/28 01:35:19;;;;;;;5.57;3.60;;;;;;;4.10;90.51;98777.28;5080635;28;20037;-90
2023/02/28 01:37:45;;;;;;;7.03;3.50;;;;;;;4.01;91.57;98774.63;5077908;28;20032;-91
2023/02/28 01:40:13;;;;;;;5.65;3.20;;;;;;;4.08;90.70;98768.50;5085894;28;20062;-93
2023/02/28 01:42:39;;;;;;;5.20;3.40;;;;;;;4.00;90.44;98752.72;5081447;28;20603;-90
2023/02/28 01:45:19;;;;;;;7.32;3.22;;;;;;;4.08;89.91;98753.59;5080202;28;20068;-91
2023/02/28 01:47:45;;;;;;;6.75;3.22;;;;;;;4.14;90.48;98781.63;5080504;28;20052;-91
2023/02/28 01:50:16;;;;;;;5.32;3.20;;;;;;;4.20;89.76;98773.72;5079791;28;20048;-92
2023/02/28 01:52:43;;;;;;;5.85;3.20;;;;;;;4.11;89.74;98765.84;5074322;28;20037;-91
2023/02/28 01:55:12;;;;;;;5.30;3.50;;;;;;;4.06;90.19;98757.09;5078190;28;20047;-90
2023/02/28 01:57:42;;;;;;;5.97;3.58;;;;;;;4.13;90.56;98768.50;5079041;28;20048;-91
2023/02/28 02:00:13;;;;;;;5.47;3.25;;;;;;;4.07;90.02;98759.72;5076601;28;20082;-90
2023/02/28 02:02:40;;;;;;;7.00;3.35;;;;;;;4.15;90.51;98777.28;5078675;28;20366;-93
2023/02/28 02:05:08;;;;;;;7.03;3.70;;;;;;;4.10;90.98;98775.50;5077331;28;20087;-93
2023/02/28 02:07:38;;;;;;;5.90;3.05;;;;;;;4.13;90.19;98771.13;5080191;28;20406;-92
2023/02/28 02:10:11;;;;;;;6.03;3.33;;;;;;;4.10;90.32;98764.13;5076595;28;20128;-91
2023/02/28 02:12:52;;;;;;;5.95;3.33;;;;;;;4.07;90.95;98762.34;5075890;28;20064;-91
2023/02/28 02:15:26;;;;;;;6.22;3.50;;;;;;;4.14;91.06;98775.50;5077451;28;20047;-92
2023/02/28 02:17:56;;;;;;;5.13;3.42;;;;;;;4.00;92.12;98759.72;5079180;28;20036;-92
2023/02/28 02:20:42;;;;;;;5.85;3.47;;;;;;;3.99;91.62;98752.69;5080370;28;20387;-91
2023/02/28 02:23:28;;;;;;;5.68;3.20;;;;;;;4.03;91.30;98749.19;5073814;28;20051;-91
2023/02/28 02:25:56;;;;;;;5.57;3.53;;;;;;;4.15;91.30;98766.75;5077247;28;20044;-93
2023/02/28 02:28:51;;;;;;;6.07;3.30;;;;;;;3.97;91.68;98738.66;5075392;28;20040;-92
2023/02/28 02:31:42;;;;;;;7.10;3.10;;;;;;;4.13;91.57;98761.47;5076263;28;20130;-91
2023/02/28 02:34:28;;;;;;;6.35;3.10;;;;;;;4.15;91.88;98754.44;5077426;28;20063;-91
2023/02/28 02:37:04;;;;;;;6.30;3.50;;;;;;;4.08;91.58;98744.81;5077667;28;20043;-90
2023/02/28 02:39:41;;;;;;;5.32;3.33;;;;;;;4.12;92.10;98751.84;5079325;28;20036;-91
2023/02/28 02:42:15;;;;;;;5.97;3.65;;;;;;;4.11;91.81;98747.44;5077091;28;20498;-90
2023/02/28 02:44:47;;;;;;;6.30;3.50;;;;;;;4.17;91.67;98762.34;5079495;28;20041;-89
2023/02/28 02:47:17;;;;;;;6.93;3.72;;;;;;;4.16;91.54;98740.41;5075376;28;20056;-90
2023/02/28 02:49:46;;;;;;;;;;;;;;;4.23;91.41;98763.22;5076131;28;20135;-92
2023/02/28 02:52:16;;;;;;;5.97;4.00;;;;;;;4.17;91.36;98751.81;5077406;28;19920;-91
2023/02/28 02:54:45;;;;;;;4.75;3.30;;;;;;;4.14;91.88;98751.81;5080142;28;20028;-92
2023/02/28 02:57:15;;;;;;;5.65;3.50;;;;;;;4.12;91.50;98746.56;5073203;28;20077;-92
2023/02/28 02:59:43;;;;;;;5.15;3.15;;;;;;;4.03;91.40;98730.78;5073586;28;21346;-90
2023/02/28 03:02:12;;;;;;;5.70;3.15;;;;;;;4.11;90.87;98724.63;5076337;28;20127;-92
2023/02/28 03:04:42;;;;;;;6.15;3.28;;;;;;;4.18;91.03;98738.63;5076629;28;20151;-92
2023/02/28 03:07:10;;;;;;;5.78;3.15;;;;;;;4.19;90.93;98748.31;5080118;28;20040;-91
2023/02/28 03:09:35;;;;;;;5.15;3.40;;;;;;;4.19;90.92;98744.81;5076746;28;20040;-91
2023/02/28 03:12:03;;;;;;;4.95;3.20;;;;;;;4.16;90.54;98727.22;5085430;28;20044;-92
2023/02/28 03:14:44;;;;;;;5.50;3.20;;;;;;;4.24;91.32;98753.56;5076165;28;20131;-91
2023/02/28 03:17:30;;;;;;;4.20;2.88;;;;;;;4.25;91.13;98747.41;5078335;28;20040;-92
2023/02/28 03:20:06;;;;;;;5.82;3.10;;;;;;;4.15;91.23;98741.28;5083755;28;20064;-91
2023/02/28 03:23:01;;;;;;;5.90;3.65;;;;;;;4.15;90.86;98749.19;5076318;28;20494;-91
2023/02/28 03:25:37;;;;;;;4.80;3.03;;;;;;;4.15;91.32;98743.06;5077572;28;20044;-92
2023/02/28 03:28:13;;;;;;;5.70;3.53;;;;;;;4.24;90.84;98759.69;5077442;28;20417;-91
2023/02/28 03:30:45;;;;;;;4.22;2.83;;;;;;;4.28;91.21;98756.19;5073237;28;20036;-90
2023/02/28 03:33:14;;;;;;;5.28;3.00;;;;;;;4.17;90.92;98736.91;5076077;28;20664;-94
2023/02/28 03:35:44;;;;;;;6.90;3.40;;;;;;;4.25;91.37;98763.19;5074498;28;20040;-91
2023/02/28 03:38:18;;;;;;;4.80;2.70;;;;;;;4.30;91.08;98758.81;5077730;28;20050;-92
2023/02/28 03:40:55;;;;;;;5.38;3.00;;;;;;;4.28;91.00;98753.53;5079485;28;20029;-91
2023/02/28 03:43:26;;;;;;;5.00;3.20;;;;;;;4.13;91.03;98732.53;5074183;28;20041;-92
2023/02/28 03:45:54;;;;;;;5.13;2.90;;;;;;;4.12;91.58;98722.88;5074114;28;20062;-92
2023/02/28 03:48:25;;;;;;;4.25;2.83;;;;;;;4.19;91.00;98732.50;5073629;28;20045;-91
2023/02/28 03:50:58;;;;;;;4.63;2.63;;;;;;;4.21;90.62;98717.59;5074719;28;20191;-91
2023/02/28 03:53:37;;;;;;;4.90;3.25;;;;;;;4.13;91.74;98732.53;5072278;28;20041;-91
2023/02/28 03:56:11;;;;;;;5.05;3.28;;;;;;;4.19;91.55;98742.16;5073469;28;20541;-92
2023/02/28 03:58:42;;;;;;;6.35;3.35;;;;;;;4.11;91.67;98719.34;5074279;28;20044;-91
2023/02/28 04:01:11;;;;;;;4.90;3.22;;;;;;;4.31;91.31;98753.53;5079228;28;20048;-92
2023/02/28 04:03:38;;;;;;;5.57;3.15;;;;;;;4.22;91.65;98739.53;5081165;28;20413;-92
2023/02/28 04:06:06;;;;;;;4.90;2.80;;;;;;;4.12;92.17;98720.25;5075789;28;20043;-92
2023/02/28 04:08:34;;;;;;;4.82;2.80;;;;;;;4.12;91.62;98717.63;5072978;28;20036;-91
2023/02/28 04:11:06;;;;;;;4.95;2.95;;;;;;;4.19;92.27;98745.66;5077621;28;20050;-92
2023/02/28 04:13:32;;;;;;;6.18;3.30;;;;;;;4.05;92.17;98729.03;5076349;28;20554;-91
2023/02/28 04:15:58;;;;;;;5.43;3.03;;;;;;;4.17;92.47;98750.06;5076199;28;20131;-91
2023/02/28 04:18:24;;;;;;;5.07;3.15;;;;;;;4.23;92.39;98755.31;5078018;28;20044;-94
2023/02/28 04:20:50;;;;;;;6.40;3.20;;;;;;;4.13;93.08;98748.31;5074686;28;20032;-92
2023/02/28 04:23:15;;;;;;;5.60;3.28;;;;;;;4.09;92.96;98742.16;5078674;28;20043;-91
2023/02/28 04:25:43;;;;;;;5.57;2.80;;;;;;;4.11;93.01;98747.44;5074761;28;20051;-92
2023/02/28 04:28:09;;;;;;;5.43;3.20;;;;;;;4.14;93.56;98746.53;5074780;28;20132;-91
2023/02/28 04:30:35;;;;;;;5.28;3.05;;;;;;;4.03;93.05;98729.00;5073946;28;20055;-93
2023/02/28 04:33:01;;;;;;;5.38;3.00;;;;;;;4.07;93.76;98749.19;5082317;28;20043;-92
2023/02/28 04:35:27;;;;;;;5.32;3.40;;;;;;;4.01;94.03;98751.84;5083083;28;20059;-91
2023/02/28 04:37:53;;;;;;;5.22;3.10;;;;;;;4.02;93.47;98743.06;5083202;28;20517;-91
2023/02/28 04:40:19;;;;;;;5.63;3.10;;;;;;;4.04;93.67;98758.84;5084763;28;20131;-91
2023/02/28 04:42:46;;;;;;;8.07;3.33;;;;;;;4.06;93.08;98750.06;5080902;28;20068;-92
2023/02/28 04:45:12;;;;;;;5.90;3.33;;;;;;;4.19;93.04;98756.19;5078417;28;20131;-89
2023/02/28 04:47:38;;;;;;;4.35;2.47;;;;;;;4.16;93.10;98760.59;5085026;28;20036;-89
2023/02/28 04:50:05;;;;;;;5.15;2.85;;;;;;;4.12;93.44;98767.63;5077096;28;20044;-90
2023/02/28 04:52:30;;;;;;;4.60;3.00;;;;;;;3.96;93.63;98732.53;5080472;28;20044;-95
2023/02/28 04:54:56;;;;;;;6.00;3.00;;;;;;;4.20;93.47;98772.88;5076811;28;20514;-91
2023/02/28 04:57:22;;;;;;;5.97;3.08;;;;;;;4.16;93.60;98771.97;5080793;28;20127;-91
2023/02/28 04:59:49;;;;;;;4.68;2.90;;;;;;;4.17;93.06;98762.34;5078083;28;20506;-91
2023/02/28 05:02:16;;;;;;;4.90;3.17;;;;;;;4.01;93.77;98735.16;5076971;28;20041;-91
2023/02/28 05:04:41;;;;;;;6.38;3.05;;;;;;;4.13;94.15;98765.88;5078373;28;20040;-91
2023/02/28 05:07:07;;;;;;;7.00;3.28;;;;;;;4.23;93.91;98771.13;5084879;28;20090;-92
2023/02/28 05:09:33;;;;;;;5.53;3.08;;;;;;;4.04;93.63;98743.06;5075476;28;20390;-92
2023/02/28 05:11:59;;;;;;;4.50;2.97;;;;;;;4.12;93.67;98762.38;5082495;28;20033;-92
2023/02/28 05:14:25;;;;;;;5.20;3.17;;;;;;;4.10;93.72;98758.84;5079197;28;20045;-92
2023/02/28 05:16:52;;;;;;;6.45;3.25;;;;;;;4.10;94.01;98772.00;5080354;28;20044;-93
2023/02/28 05:19:18;;;;;;;7.05;3.00;;;;;;;4.06;94.39;98771.13;5081973;28;20489;-91
2023/02/28 05:21:51;;;;;;;5.38;3.10;;;;;;;4.11;94.35;98782.50;5075653;28;20036;-93
2023/02/28 05:24:22;;;;;;;4.10;2.50;;;;;;;4.13;94.30;98781.66;5080599;28;20040;-92
2023/02/28 05:26:50;;;;;;;4.78;2.90;;;;;;;4.07;94.76;98767.59;5085474;28;20094;-93
2023/02/28 05:29:16;;;;;;;5.13;2.80;;;;;;;4.11;94.58;98781.66;5075627;28;20520;-92
2023/02/28 05:31:42;;;;;;;5.13;3.10;;;;;;;4.17;94.22;98781.63;5076868;28;20032;-93
2023/02/28 05:34:12;;;;;;;4.53;2.60;;;;;;;4.11;94.53;98771.13;5078363;28;20060;-92
2023/02/28 05:36:38;;;;;;;6.18;2.90;;;;;;;4.15;94.52;98774.63;5079295;28;20082;-93
2023/02/28 05:39:05;;;;;;;4.60;2.97;;;;;;;4.21;93.86;98770.25;5078084;28;20488;-91
2023/02/28 05:41:31;;;;;;;4.10;2.50;;;;;;;4.25;93.93;98777.25;5078730;28;20047;-92
2023/02/28 05:43:57;;;;;;;5.65;2.85;;;;;;;4.27;94.06;98791.28;5080331;28;20036;-93
2023/02/28 05:46:23;;;;;;;3.50;2.47;;;;;;;4.28;94.52;98792.16;5083717;28;20024;-92
2023/02/28 05:48:50;;;;;;;5.00;2.80;;;;;;;4.18;94.56;98779.88;5079869;28;20044;-91
2023/02/28 05:51:17;;;;;;;4.50;3.20;;;;;;;4.18;95.25;98786.00;5082922;28;20044;-92
2023/02/28 05:53:44;;;;;;;4.10;2.67;;;;;;;4.17;95.09;98789.53;5078515;28;20055;-93
2023/02/28 05:56:09;;;;;;;5.18;2.88;;;;;;;4.25;95.23;98798.31;5078560;28;20505;-92
2023/02/28 05:58:36;;;;;;;4.10;2.60;;;;;;;4.20;95.47;98791.28;5077713;28;20044;-92
2023/02/28 06:01:21;;;;;;;4.90;2.65;;;;;;;4.37;95.16;98812.31;5079990;28;20040;-91
2023/02/28 06:03:46;;;;;;;5.18;3.25;;;;;;;4.34;95.72;98807.94;5079275;28;20051;-95
2023/02/28 06:06:12;;;;;;;4.95;3.03;;;;;;;4.36;96.20;98814.09;5083041;28;20052;-93
2023/02/28 06:08:40;;;;;;;4.35;2.70;;;;;;;4.19;96.32;98782.53;5081974;28;20033;-93
2023/02/28 06:11:06;;;;;;;4.65;2.88;;;;;;;4.29;96.35;98802.69;5077739;28;20052;-92
2023/02/28 06:13:32;;;;;;;6.18;3.55;;;;;;;4.29;96.54;98805.31;5076543;28;20086;-95
2023/02/28 06:16:00;;;;;;;3.78;2.55;;;;;;;4.29;96.48;98804.44;5080671;28;20032;-94
2023/02/28 06:18:26;;;;;;;4.75;2.90;;;;;;;4.33;96.64;98807.03;5075450;28;20067;-92
2023/02/28 06:20:54;;;;;;;5.43;3.28;;;;;;;4.21;97.04;98785.16;5077380;28;20063;-92
2023/02/28 06:23:20;;;;;;;4.85;2.97;;;;;;;4.24;97.21;98795.66;5081781;28;20090;-94
2023/02/28 06:25:47;;;;;;;5.63;3.00;;;;;;;4.31;98.06;98798.28;5082940;28;20036;-91
2023/02/28 06:28:13;;;;;;;5.05;3.28;;;;;;;4.35;98.06;98793.88;5074955;28;20480;-94
2023/02/28 06:30:39;;;;;;;5.70;3.50;;;;;;;4.54;98.16;98823.72;5077334;28;20091;-92
2023/02/28 06:33:05;;;;;;;5.28;3.70;;;;;;;4.42;97.34;98800.03;5084341;28;20394;-94
2023/02/28 06:35:31;;;;;;;5.18;3.05;;;;;;;4.61;97.59;98814.03;5081452;28;20063;-93
2023/02/28 06:37:57;;;;;;;6.22;3.45;;;;;;;4.62;97.98;98819.31;5077278;28;20036;-93
2023/02/28 06:40:23;;;;;;;5.75;3.70;;;;;;;4.55;98.12;98809.63;5079384;28;20032;-92
2023/02/28 06:42:50;;;;;;;4.43;3.05;;;;;;;4.74;98.34;98816.63;5084382;28;20397;-92
2023/02/28 06:45:16;;;;;;;5.70;3.25;;;;;;;4.53;98.69;98787.69;5086377;28;20056;-93
2023/02/28 06:47:43;;;;;;;6.47;3.55;;;;;;;4.77;98.40;98810.50;5079371;28;20108;-94
2023/02/28 06:50:10;;;;;;;5.60;2.92;;;;;;;4.88;98.26;98820.97;5081237;28;20051;-94
2023/02/28 06:52:37;;;;;;;4.50;3.15;;;;;;;4.92;96.95;98804.25;5082404;28;20053;-94
2023/02/28 06:55:04;;;;;;;4.72;3.17;;;;;;;4.86;97.02;98799.91;5092655;28;20048;-93
2023/02/28 06:57:34;;;;;;;3.90;2.47;;;;;;;4.88;96.48;98790.25;5079122;28;20040;-93
2023/02/28 07:00:05;;;;;;;4.40;2.92;;;;;;;5.00;96.01;98820.94;5084759;28;20055;-93
2023/02/28 07:02:31;;;;;;;4.43;2.60;;;;;;;4.98;96.19;98811.28;5085728;28;20052;-93
2023/02/28 07:04:57;;;;;;;4.20;2.50;;;;;;;5.02;95.55;98818.28;5077772;28;20052;-91
2023/02/28 07:07:23;;;;;;;3.88;2.63;;;;;;;5.11;95.91;98824.38;5076334;28;20398;-92
2023/02/28 07:09:49;;;;;;;4.40;2.70;;;;;;;5.07;95.71;98822.66;5078115;28;20031;-92
2023/02/28 07:12:14;;;;;;;4.05;2.28;;;;;;;5.13;95.61;98830.53;5077241;28;20047;-91
2023/02/28 07:14:40;;;;;;;4.32;2.63;;;;;;;5.22;94.81;98826.09;5074304;28;20036;-92
2023/02/28 07:17:10;;;;;;;3.85;2.35;;;;;;;5.19;94.61;98811.19;5075565;28;20045;-91
2023/02/28 07:19:36;;;;;;;3.15;2.10;;;;;;;5.40;94.08;98839.22;5076336;28;20032;-93
2023/02/28 07:22:02;;;;;;;3.75;2.22;;;;;;;5.34;93.85;98828.69;5074208;28;20481;-90
2023/02/28 07:24:29;;;;;;;3.80;2.60;;;;;;;5.42;93.77;98847.09;5073811;28;20131;-91
2023/02/28 07:26:55;;;;;;;3.28;2.10;;;;;;;5.37;93.64;98815.47;5074687;28;20565;-92
2023/02/28 07:29:21;;;;;;;2.80;2.10;;;;;;;5.44;93.49;98816.31;5076870;28;20099;-92
2023/02/28 07:31:47;;;;;;;3.28;2.22;;;;;;;5.60;93.24;98835.59;5073766;28;20032;-93
2023/02/28 07:34:14;;;;;;;5.03;2.42;;;;;;;5.58;93.17;98837.38;5077736;28;20040;-91
2023/02/28 07:36:40;;;;;;;3.10;2.00;;;;;;;5.51;93.26;98813.66;5080125;28;20573;-92
2023/02/28 07:39:06;;;;;;;4.25;2.22;;;;;;;5.66;92.69;98810.03;5075741;28;20127;-92
2023/02/28 07:41:33;;;;;;;4.43;2.33;;;;;;;5.56;93.06;98797.78;5076803;28;20043;-91
2023/02/28 07:43:59;;;;;;;3.05;2.10;;;;;;;5.78;92.81;98834.59;5078494;28;20039;-93
2023/02/28 07:46:26;;;;;;;4.82;2.40;;;;;;;5.65;92.54;98808.28;5077003;28;20048;-91
2023/02/28 07:48:53;;;;;;;3.30;2.30;;;;;;;5.85;92.61;98816.03;5072211;28;20044;-93
2023/02/28 07:51:22;;;;;;;2.95;2.10;;;;;;;6.03;91.60;98820.38;5080467;28;20560;-91
2023/02/28 07:53:48;;;;;;;4.63;2.40;;;;;;;6.10;91.53;98813.28;5076094;28;20040;-93
2023/02/28 07:56:14;;;;;;;5.05;2.33;;;;;;;6.01;90.94;98800.13;5077178;28;20829;-92
2023/02/28 07:58:40;;;;;;;4.20;2.28;;;;;;;6.05;91.39;98788.66;5077976;28;20064;-91
2023/02/28 08:01:07;;;;;;;4.00;2.30;;;;;;;6.12;90.73;98800.94;5076526;28;20048;-93
2023/02/28 08:03:32;;;;;;;4.43;2.45;;;;;;;6.41;90.07;98834.13;5078352;28;20041;-93
2023/02/28 08:05:59;;;;;;;4.43;2.47;;;;;;;6.31;89.99;98810.44;5076745;28;20047;-92
2023/02/28 08:08:30;;;;;;;4.13;2.55;;;;;;;6.53;88.61;98803.19;5082121;28;20093;-92
2023/02/28 08:10:58;;;;;;;3.95;2.42;;;;;;;6.74;87.88;98812.66;5081484;28;20040;-92
2023/02/28 08:13:24;;;;;;;4.97;2.50;;;;;;;6.82;87.57;98809.91;5085869;28;20131;-92
2023/02/28 08:15:50;;;;;;;3.92;2.50;;;;;;;7.11;88.71;98825.44;5080007;28;20028;-93
2023/02/28 08:18:16;;;;;;;3.40;2.30;;;;;;;7.27;84.96;98806.72;5079176;28;20047;-92
2023/02/28 08:20:42;;;;;;;3.40;2.30;;;;;;;7.43;84.94;98813.53;5078854;28;20044;-93
2023/02/28 08:23:07;;;;;;;3.40;2.15;;;;;;;7.47;84.56;98817.91;5086339;28;20036;-93
2023/02/28 08:25:35;;;;;;;4.40;2.45;;;;;;;7.38;84.71;98796.88;5086232;28;20051;-90
2023/02/28 08:28:01;;;;;;;4.63;2.58;;;;;;;7.69;83.02;98826.41;5089486;28;20035;-93
2023/02/28 08:31:00;;;;;;;5.60;2.10;;;;;;;7.79;82.78;98828.03;5062528;28;20128;-92
2023/02/28 08:33:27;;;;;;;4.10;2.90;;;;;;;7.77;82.11;98821.88;5079991;28;20048;-92
2023/02/28 08:35:54;;;;;;;4.55;2.70;;;;;;;7.45;83.86;98802.94;5079129;28;20046;-93
2023/02/28 08:38:20;;;;;;;3.55;2.08;;;;;;;7.32;81.46;98789.88;5077839;28;20043;-92
2023/02/28 08:40:47;;;;;;;4.68;2.60;;;;;;;7.40;82.16;98789.78;5078228;28;20044;-91
2023/02/28 08:43:13;;;;;;;5.13;2.53;;;;;;;7.40;82.72;98798.59;5078294;28;20136;-93
2023/02/28 08:45:39;;;;;;;3.95;2.25;;;;;;;7.30;83.83;98801.38;5085405;28;20139;-92
2023/02/28 08:48:05;;;;;;;4.32;2.50;;;;;;;7.25;83.90;98803.22;5079382;28;20063;-94
2023/02/28 08:50:31;;;;;;;3.85;2.47;;;;;;;7.31;83.94;98801.38;5079610;28;20151;-94
2023/02/28 08:52:56;;;;;;;3.00;2.10;;;;;;;7.32;82.99;98826.06;5081979;28;20045;-91
2023/02/28 08:55:22;;;;;;;3.45;2.47;;;;;;;7.54;82.91;98810.75;5085456;28;20417;-92
2023/02/28 08:57:50;;;;;;;3.30;2.22;;;;;;;7.61;82.18;98815.94;5085126;28;20127;-94
2023/02/28 09:00:17;;;;;;;3.25;2.10;;;;;;;7.47;81.25;98788.81;5091246;28;20051;-93
2023/02/28 09:02:43;;;;;;;4.20;2.50;;;;;;;7.46;82.69;98796.75;5082814;28;20559;-92
2023/02/28 09:05:09;;;;;;;3.25;2.20;;;;;;;7.44;81.97;98795.91;5080160;28;20512;-91
2023/02/28 09:07:35;;;;;;;3.22;2.03;;;;;;;7.68;81.87;98815.88;5073675;28;20047;-92
2023/02/28 09:10:01;;;;;;;3.75;2.30;;;;;;;7.97;81.61;98815.41;5079633;28;20040;-93
2023/02/28 09:12:31;;;;;;;3.35;2.10;;;;;;;7.83;81.38;98797.09;5084084;28;20085;-92
2023/02/28 09:14:58;;;;;;;3.47;2.00;;;;;;;8.23;80.14;98793.78;5083176;28;20562;-92
2023/02/28 09:17:24;;;;;;;3.15;1.98;;;;;;;8.65;78.85;98801.88;5080720;28;20032;-93
2023/02/28 09:19:50;;;;;;;2.92;1.80;;;;;;;8.80;75.85;98787.47;5078623;28;20131;-91
2023/02/28 09:22:16;;;;;;;3.03;1.92;;;;;;;8.83;75.21;98814.81;5075803;28;20041;-94
2023/02/28 09:24:44;;;;;;;1.60;1.50;;;;;;;8.86;75.27;98802.41;5075822;28;20477;-91
2023/02/28 09:27:10;;;;;;;2.20;1.70;;;;;;;8.86;75.23;98787.34;5077973;28;20040;-92
2023/02/28 09:29:36;;;;;;;2.47;1.80;;;;;;;8.94;74.44;98785.44;5082463;28;20043;-92
2023/02/28 09:32:05;;;;;;;2.80;1.80;;;;;;;8.93;72.78;98762.44;5068766;28;20045;-93
2023/02/28 09:34:31;;;;;;;2.38;1.70;;;;;;;8.72;74.90;98774.38;5077354;28;20041;-93
2023/02/28 09:36:57;;;;;;;2.58;1.70;;;;;;;8.87;75.42;98794.41;5081190;28;20136;-92
2023/02/28 09:39:24;;;;;;;2.75;1.80;;;;;;;9.02;73.99;98793.22;5081072;28;20032;-92
2023/02/28 09:41:52;;;;;;;3.08;1.77;;;;;;;9.04;73.69;98800.25;5082508;28;20608;-94
2023/02/28 09:44:26;;;;;;;2.67;1.92;;;;;;;9.34;72.19;98810.25;5085911;28;20040;-92
2023/02/28 09:46:59;;;;;;;2.58;1.80;;;;;;;9.21;71.80;98793.72;5073086;28;20470;-92
2023/02/28 09:49:33;;;;;;;2.15;1.80;;;;;;;8.98;73.45;98802.16;5081755;28;20501;-92
2023/02/28 09:52:01;;;;;;;3.00;1.80;;;;;;;8.90;73.52;98804.09;5084234;28;20040;-94
2023/02/28 09:54:30;;;;;;;2.72;1.80;;;;;;;8.94;73.29;98789.88;5074833;28;20036;-92
2023/02/28 09:57:02;;;;;;;2.33;1.80;;;;;;;8.92;72.10;98779.28;5078364;28;20040;-92
2023/02/28 09:59:43;;;;;;;2.83;1.80;;;;;;;8.87;74.10;98788.22;5071148;28;20461;-93
2023/02/28 10:02:24;;;;;;;2.53;1.80;;;;;;;9.01;72.80;98804.75;5075278;28;20036;-92
2023/02/28 10:04:57;;;;;;;2.75;1.90;;;;;;;9.12;73.29;98799.22;5073937;28;20040;-93
2023/02/28 10:07:45;;;;;;;2.70;1.90;;;;;;;8.66;72.57;98774.50;5077149;28;20036;-92
2023/02/28 10:10:21;;;;;;;2.55;2.10;;;;;;;8.64;74.23;98789.56;5079669;28;20036;-92
2023/02/28 10:12:52;;;;;;;4.05;2.17;;;;;;;8.75;73.79;98781.38;5075630;28;20037;-94
2023/02/28 10:15:21;;;;;;;3.13;2.65;;;;;;;8.80;73.56;98811.34;5076541;28;20051;-92
2023/02/28 10:17:53;;;;;;;3.90;2.43;;;;;;;8.80;74.44;98798.97;5078344;28;20040;-94
2023/02/28 10:20:23;;;;;;;3.40;2.28;;;;;;;9.05;74.38;98802.00;5075993;28;20281;-91
2023/02/28 10:22:53;;;;;;;3.83;2.70;;;;;;;9.27;72.93;98816.59;5079802;28;20045;-93
2023/02/28 10:25:22;;;;;;;3.92;2.50;;;;;;;9.06;73.22;98821.44;5077193;28;20393;-93
2023/02/28 10:27:49;;;;;;;3.42;2.40;;;;;;;9.37;72.23;98797.78;5075311;28;20048;-93
2023/02/28 10:30:16;;;;;;;2.92;1.90;;;;;;;9.27;70.23;98801.53;5086824;28;20048;-92
2023/02/28 10:32:49;;;;;;;2.85;2.00;;;;;;;9.40;70.29;98815.44;5075131;28;20033;-92
2023/02/28 10:35:16;;;;;;;3.95;2.10;;;;;;;9.40;70.37;98795.06;5076407;28;20054;-93
2023/02/28 10:37:46;;;;;;;2.45;1.88;;;;;;;9.27;69.86;98812.16;5081482;28;20048;-92
2023/02/28 10:40:28;;;;;;;3.13;2.00;;;;;;;9.56;69.97;98803.53;5072599;28;20056;-94
2023/02/28 10:42:59;;;;;;;2.90;2.10;;;;;;;9.42;70.66;98789.72;5081741;28;20066;-94
2023/02/28 10:45:27;;;;;;;2.13;1.73;;;;;;;9.52;69.88;98801.00;5070142;28;20044;-91
2023/02/28 10:47:55;;;;;;;3.17;1.80;;;;;;;9.22;69.15;98799.00;5076913;28;20445;-93
2023/02/28 10:50:44;;;;;;;3.08;1.90;;;;;;;8.86;70.23;98802.41;5076609;28;20048;-95
2023/02/28 10:53:34;;;;;;;2.07;1.60;;;;;;;8.77;70.32;98775.16;5074371;28;20052;-92
2023/02/28 10:56:03;;;;;;;3.90;2.10;;;;;;;8.77;71.58;98777.81;5075336;28;20683;-92
2023/02/28 10:58:30;;;;;;;2.88;1.90;;;;;;;8.79;72.02;98786.59;5076887;28;20413;-93
2023/02/28 11:00:57;;;;;;;3.03;2.00;;;;;;;8.66;72.25;98784.22;5081204;28;20036;-93
2023/02/28 11:03:28;;;;;;;3.15;2.00;;;;;;;8.55;72.33;98772.03;5076055;28;20128;-93
2023/02/28 11:05:55;;;;;;;3.80;2.17;;;;;;;8.68;73.05;98785.94;5071832;28;20037;-91
2023/02/28 11:08:22;;;;;;;2.47;1.80;;;;;;;8.76;71.31;98789.31;5080864;28;20067;-94
2023/02/28 11:10:55;;;;;;;3.35;2.10;;;;;;;8.89;70.95;98781.09;5077827;28;20028;-94
2023/02/28 11:13:27;;;;;;;4.95;2.50;;;;;;;9.09;71.27;98789.53;5083147;28;20052;-94
2023/02/28 11:15:55;;;;;;;3.50;2.13;;;;;;;9.16;69.24;98780.53;5075856;28;20051;-93
2023/02/28 11:18:29;;;;;;;4.80;3.15;;;;;;;9.19;70.88;98785.78;5076678;28;20071;-93
2023/02/28 11:20:59;;;;;;;3.97;1.98;;;;;;;9.50;69.06;98790.44;5072145;28;20045;-95
2023/02/28 11:23:28;;;;;;;2.85;1.85;;;;;;;9.44;67.53;98783.47;5077053;28;20044;-92
2023/02/28 11:25:59;;;;;;;3.42;2.40;;;;;;;9.05;69.29;98778.13;5084277;28;20527;-94
2023/02/28 11:28:28;;;;;;;3.00;2.13;;;;;;;8.95;70.48;98781.00;5076802;28;20052;-93
2023/02/28 11:31:04;;;;;;;3.40;2.35;;;;;;;8.83;69.84;98768.88;5073813;28;20127;-94
2023/02/28 11:33:31;;;;;;;4.10;2.58;;;;;;;9.19;69.72;98779.59;5074467;28;20060;-94
2023/02/28 11:36:01;;;;;;;3.45;2.38;;;;;;;9.17;69.01;98776.09;5075990;28;20032;-92
2023/02/28 11:38:32;;;;;;;3.67;2.38;;;;;;;9.00;70.88;98768.50;5081923;28;20067;-92
2023/02/28 11:41:24;;;;;;;4.03;2.58;;;;;;;9.24;72.28;98767.13;5074284;28;20041;-92
2023/02/28 11:44:02;;;;;;;4.45;2.53;;;;;;;9.32;70.05;98758.97;5071492;28;20131;-94
2023/02/28 11:46:37;;;;;;;3.42;2.15;;;;;;;9.05;70.75;98766.63;5077514;28;20390;-94
2023/02/28 11:49:14;;;;;;;4.68;2.60;;;;;;;9.07;71.92;98751.56;5084697;28;20098;-93